Arden, North Carolina
Current Conditions -  °F | °C
As of 5:54 AM on Wednesday 22 Oct 2014 (Local Time) from KAVL Reporting Station
Broken Clouds Broken Clouds  
Wind Chill:   Ceiling: 3500
Heat Index:   Visibility: 10mi
Dew Point:   Wind: 12mph
Humidity: 63%   Direction: 330°NNW
Pressure: 30.07"   Gusts: NA
Location:  35.47°N, 82.52°W
Report Text: KAVL 220954Z AUTO 33010KT 10SM BKN035 08/01 A3007 RMK AO2 SLP171 T00780011
Loading
Personal Weather Stations






























Interactive Weather Map
Tropical Storm Tracking
New forecast layout! Learn more

10-Day Weather Forecast

Advertisements
Track Severe Weather on mobile